Time;durP1;ratioP1;P1;durP2;ratioP2;P2;SDS_P1;SDS_P2;PMS_P1;PMS_P2;Temp;Humidity;BMP_temperature;BMP_pressure;BME280_temperature;BME280_humidity;BME280_pressure;Samples;Min_cycle;Max_cycle;Signal;HPM_P1;HPM_P2
2020/09/18 00:01:22;;;;;;;4.2;2.8;;;;;;;18.62;77.47559;943.0949;;;;
2020/09/18 00:03:48;;;;;;;3.7;2.2;;;;;;;18.59;77.49219;943.0781;;;;
2020/09/18 00:06:12;;;;;;;3.2;2.1;;;;;;;18.57;77.55859;943.0888;;;;
2020/09/18 00:08:37;;;;;;;4.1;2.6;;;;;;;18.55;77.60254;943.0513;;;;
2020/09/18 00:11:04;;;;;;;4.1;2.4;;;;;;;18.53;77.78516;943.0974;;;;
2020/09/18 00:13:29;;;;;;;5.9;3.1;;;;;;;18.52;78.30469;943.1017;;;;
2020/09/18 00:15:56;;;;;;;3.3;2.6;;;;;;;18.45;78.9082;943.0736;;;;
2020/09/18 00:18:21;;;;;;;7;3.7;;;;;;;18.28;79.64648;943.0602;;;;
2020/09/18 00:20:47;;;;;;;4.2;2.8;;;;;;;18.07;80.83984;943.0608;;;;
2020/09/18 00:23:12;;;;;;;4.7;2.6;;;;;;;17.94;81.4541;943.0958;;;;
2020/09/18 00:25:38;;;;;;;4.5;3;;;;;;;17.77;82.35059;943.0442;;;;
2020/09/18 00:28:04;;;;;;;3.1;2.5;;;;;;;17.7;82.41992;942.9635;;;;
2020/09/18 00:30:30;;;;;;;4.1;2.9;;;;;;;17.6;82.71289;942.9261;;;;
2020/09/18 00:32:55;;;;;;;3.9;2.5;;;;;;;17.61;80.19824;942.9437;;;;
2020/09/18 00:35:20;;;;;;;4.3;2.2;;;;;;;17.51;79.33301;942.8594;;;;
2020/09/18 00:37:48;;;;;;;2.3;1.9;;;;;;;17.54;79.02539;942.8928;;;;
2020/09/18 00:40:13;;;;;;;3.6;2.2;;;;;;;17.38;78.81152;942.8901;;;;
2020/09/18 00:42:43;;;;;;;4;2.6;;;;;;;17.21;79.48633;942.8898;;;;
2020/09/18 00:45:11;;;;;;;3.1;2.1;;;;;;;17.26;79.57813;942.8437;;;;
2020/09/18 00:47:36;;;;;;;3.1;2.3;;;;;;;17.33;79.62598;942.8222;;;;
2020/09/18 00:50:02;;;;;;;4.4;2.3;;;;;;;17.44;79.19141;942.6958;;;;
2020/09/18 00:52:27;;;;;;;3.4;1.7;;;;;;;17.45;79.49609;942.6836;;;;
2020/09/18 00:54:53;;;;;;;5.6;2.8;;;;;;;17.39;80.22656;942.6839;;;;
2020/09/18 00:57:18;;;;;;;4.1;2.5;;;;;;;17.3;80.91797;942.7532;;;;
2020/09/18 00:59:44;;;;;;;3.8;2.7;;;;;;;17.03;82.88574;942.6908;;;;
2020/09/18 01:02:10;;;;;;;6.1;3.1;;;;;;;17.19;81.83691;942.6573;;;;
2020/09/18 01:04:37;;;;;;;3.5;2.7;;;;;;;17.27;81.4707;942.6247;;;;
2020/09/18 01:07:02;;;;;;;3.4;2.4;;;;;;;17.38;80.77246;942.5825;;;;
2020/09/18 01:09:26;;;;;;;4.8;2.9;;;;;;;17.39;80.34277;942.5527;;;;
2020/09/18 01:11:52;;;;;;;4.9;2.9;;;;;;;17.38;80.95605;942.5367;;;;
2020/09/18 01:14:17;;;;;;;5.3;3.3;;;;;;;17.28;82.67676;942.5175;;;;
2020/09/18 01:16:43;;;;;;;5.1;3.2;;;;;;;17.26;83.43848;942.4992;;;;
2020/09/18 01:19:09;;;;;;;6.8;3.9;;;;;;;17.23;83.58496;942.4158;;;;
2020/09/18 01:21:34;;;;;;;5.9;3.6;;;;;;;17.28;83.05957;942.4564;;;;
2020/09/18 01:23:59;;;;;;;6.5;3.2;;;;;;;17.27;83.33789;942.4218;;;;
2020/09/18 01:26:24;;;;;;;5.2;3.7;;;;;;;17.14;84.41309;942.4654;;;;
2020/09/18 01:30:03;;;;;;;6.4;3.7;;;;;;;17.05;85.84473;942.4478;;;;
2020/09/18 01:32:28;;;;;;;5.5;3.4;;;;;;;17.17;84.92871;942.4048;;;;
2020/09/18 01:34:55;;;;;;;4.6;3.6;;;;;;;17.26;84.70313;942.3752;;;;
2020/09/18 01:37:20;;;;;;;7.3;4.2;;;;;;;17.16;85.83105;942.3638;;;;
2020/09/18 01:39:47;;;;;;;6.4;3.9;;;;;;;17.22;85.27539;942.3193;;;;
2020/09/18 01:42:12;;;;;;;7.1;3.5;;;;;;;17.25;84.88672;942.3295;;;;
2020/09/18 01:44:38;;;;;;;7.9;3.6;;;;;;;17.29;84.19824;942.2606;;;;
2020/09/18 01:47:03;;;;;;;4.5;3;;;;;;;17.23;82.62207;942.3474;;;;
2020/09/18 01:49:32;;;;;;;4.6;2.7;;;;;;;17.24;81.99609;942.303;;;;
2020/09/18 01:51:56;;;;;;;5.8;3.1;;;;;;;17.15;82.29395;942.215;;;;
2020/09/18 01:54:22;;;;;;;3.7;3;;;;;;;17.19;81.44238;942.2597;;;;
2020/09/18 01:56:47;;;;;;;3.4;2.2;;;;;;;17.18;81.02344;942.3234;;;;
2020/09/18 01:59:15;;;;;;;4.1;2.5;;;;;;;17.26;80.44727;942.3849;;;;
2020/09/18 02:01:40;;;;;;;2.7;2.1;;;;;;;17.28;80.34668;942.2751;;;;
2020/09/18 02:04:09;;;;;;;4.8;2.6;;;;;;;17.24;80.89648;942.3376;;;;
2020/09/18 02:06:35;;;;;;;4.9;2.4;;;;;;;17.21;81.17969;942.3497;;;;
2020/09/18 02:09:00;;;;;;;4.4;2.6;;;;;;;17.22;80.8916;942.3038;;;;
2020/09/18 02:11:25;;;;;;;4.6;3;;;;;;;17.25;80.97949;942.3038;;;;
2020/09/18 02:13:50;;;;;;;3;2.3;;;;;;;17.21;80.42578;942.3633;;;;
2020/09/18 02:16:16;;;;;;;6.2;2.9;;;;;;;17.16;79.62891;942.3469;;;;
2020/09/18 02:18:46;;;;;;;3.2;2.5;;;;;;;17;79.4375;942.3883;;;;
2020/09/18 02:21:11;;;;;;;4.8;2.8;;;;;;;16.81;80.30664;942.4016;;;;
2020/09/18 02:23:38;;;;;;;3.1;2.2;;;;;;;16.52;81.44629;942.449;;;;
2020/09/18 02:26:03;;;;;;;4.2;2.7;;;;;;;16.27;82.75488;942.4511;;;;
2020/09/18 02:28:28;;;;;;;4.5;2.9;;;;;;;16.22;83.40332;942.4361;;;;
2020/09/18 02:30:53;;;;;;;6.9;3.1;;;;;;;16.05;84.1123;942.4174;;;;
2020/09/18 02:33:20;;;;;;;5.5;3.4;;;;;;;16.14;83.57324;942.3825;;;;
2020/09/18 02:35:45;;;;;;;6.4;3.1;;;;;;;16.17;82.3291;942.3589;;;;
2020/09/18 02:38:14;;;;;;;4.5;2.7;;;;;;;16.23;81.73926;942.4763;;;;
2020/09/18 02:40:39;;;;;;;5;2.8;;;;;;;16.15;81.33105;942.4249;;;;
2020/09/18 02:43:06;;;;;;;3.4;2.3;;;;;;;16.11;81.02344;942.4211;;;;
2020/09/18 02:45:31;;;;;;;4;2.8;;;;;;;16.09;80.63672;942.4277;;;;
2020/09/18 02:47:57;;;;;;;6.2;3.1;;;;;;;15.95;81.31738;942.4465;;;;
2020/09/18 02:50:22;;;;;;;6.2;3.1;;;;;;;15.91;82.44336;942.4828;;;;
2020/09/18 02:52:49;;;;;;;9.8;2.4;;;;;;;15.57;84.82715;942.4182;;;;
2020/09/18 02:55:14;;;;;;;3.4;2.3;;;;;;;15.67;84.51172;942.5003;;;;
2020/09/18 02:57:40;;;;;;;3.2;2.6;;;;;;;15.76;83.23535;942.5474;;;;
2020/09/18 03:00:05;;;;;;;3.7;2.3;;;;;;;15.8;82.67773;942.4846;;;;
2020/09/18 03:02:30;;;;;;;4.4;2.5;;;;;;;15.85;82.58203;942.5722;;;;
2020/09/18 03:05:02;;;;;;;3.7;2.6;;;;;;;15.87;82.83984;942.5737;;;;
2020/09/18 03:07:30;;;;;;;3.1;2.4;;;;;;;15.83;82.95996;942.5603;;;;
2020/09/18 03:09:55;;;;;;;4.2;2.6;;;;;;;15.63;83.10547;942.6064;;;;
2020/09/18 03:12:21;;;;;;;4.3;2.8;;;;;;;15.63;81.7207;942.6473;;;;
2020/09/18 03:14:46;;;;;;;6.7;2.7;;;;;;;15.63;81.17773;942.6361;;;;
2020/09/18 03:17:14;;;;;;;3.9;2.6;;;;;;;15.65;82.35938;942.6906;;;;
2020/09/18 03:19:39;;;;;;;4.1;2.4;;;;;;;15.66;81.99023;942.6433;;;;
2020/09/18 03:22:05;;;;;;;5;2.7;;;;;;;15.63;80.87598;942.6578;;;;
2020/09/18 03:24:29;;;;;;;3.3;2.3;;;;;;;15.63;81.21094;942.6995;;;;
2020/09/18 03:26:56;;;;;;;5.7;3;;;;;;;15.46;82.01172;942.6986;;;;
2020/09/18 03:29:21;;;;;;;4;2.6;;;;;;;15.44;82.49316;942.7316;;;;
2020/09/18 03:31:47;;;;;;;4.2;2.8;;;;;;;15.42;82.43066;942.7338;;;;
2020/09/18 03:34:12;;;;;;;4.7;2.8;;;;;;;15.49;82.24805;942.6978;;;;
2020/09/18 03:36:38;;;;;;;3.1;2.4;;;;;;;15.47;82.19824;942.713;;;;
2020/09/18 03:39:03;;;;;;;4.4;3.1;;;;;;;15.44;82.66699;942.6697;;;;
2020/09/18 03:41:29;;;;;;;3.9;2.6;;;;;;;15.42;82.88086;942.6406;;;;
2020/09/18 03:43:54;;;;;;;4.6;2.8;;;;;;;15.44;82.20313;942.6866;;;;
2020/09/18 03:46:19;;;;;;;6.1;2.9;;;;;;;15.38;81.67383;942.6785;;;;
2020/09/18 03:48:44;;;;;;;4.8;2.9;;;;;;;15.29;82.47656;942.6922;;;;
2020/09/18 03:51:09;;;;;;;3.6;2.8;;;;;;;15.12;83.02051;942.7282;;;;
2020/09/18 03:53:35;;;;;;;4.7;2.9;;;;;;;15.11;83.30762;942.6905;;;;
2020/09/18 03:56:00;;;;;;;4.8;2.9;;;;;;;15.18;82.97363;942.6912;;;;
2020/09/18 03:58:26;;;;;;;8.4;2.8;;;;;;;15.09;82.6582;942.7138;;;;
2020/09/18 04:02:35;;;;;;;3.7;2.6;;;;;;;14.91;83.18848;942.7401;;;;
2020/09/18 04:05:00;;;;;;;5.1;2.7;;;;;;;14.93;83.5498;942.7529;;;;
2020/09/18 04:07:25;;;;;;;3.7;2.4;;;;;;;14.99;83.12402;942.6959;;;;
2020/09/18 04:09:53;;;;;;;5.9;3.4;;;;;;;15.09;83.01367;942.6729;;;;
2020/09/18 04:12:18;;;;;;;2.9;2.5;;;;;;;15.18;83.22852;942.6527;;;;
2020/09/18 04:14:48;;;;;;;4.6;2.7;;;;;;;15.28;83.81348;942.6834;;;;
2020/09/18 04:17:13;;;;;;;5;2.4;;;;;;;15.32;83.93555;942.7371;;;;
2020/09/18 04:19:38;;;;;;;3.6;2.4;;;;;;;15.35;83.54883;942.7402;;;;
2020/09/18 04:22:03;;;;;;;2.5;1.9;;;;;;;15.32;82.19238;942.7499;;;;
2020/09/18 04:24:28;;;;;;;5.7;2.9;;;;;;;15.24;82.60645;942.8198;;;;
2020/09/18 04:26:55;;;;;;;8.4;2.3;;;;;;;15.09;82.5752;942.8333;;;;
2020/09/18 04:29:20;;;;;;;4.1;2.2;;;;;;;14.93;83.91699;942.8467;;;;
2020/09/18 04:31:45;;;;;;;10.4;2.7;;;;;;;14.95;83.67871;942.8162;;;;
2020/09/18 04:34:10;;;;;;;9.3;2.8;;;;;;;14.99;83.55078;942.8524;;;;
2020/09/18 04:36:39;;;;;;;8.2;2.3;;;;;;;15.08;83.72949;942.8847;;;;
2020/09/18 04:39:06;;;;;;;4.9;2.4;;;;;;;15.17;83.45605;942.9688;;;;
2020/09/18 04:41:31;;;;;;;4.2;2.7;;;;;;;15.18;83.42383;942.9375;;;;
2020/09/18 04:43:56;;;;;;;4.1;2.7;;;;;;;15.32;82.95508;942.9128;;;;
2020/09/18 04:46:22;;;;;;;6;2.3;;;;;;;15.39;83.38379;942.8837;;;;
2020/09/18 04:48:47;;;;;;;3.8;2.4;;;;;;;15.46;83.78906;942.9041;;;;
2020/09/18 04:51:12;;;;;;;4.7;2.8;;;;;;;15.52;83.78906;942.9473;;;;
2020/09/18 04:53:41;;;;;;;4.9;2.7;;;;;;;15.57;83.5918;942.9359;;;;
2020/09/18 04:56:06;;;;;;;11.5;3;;;;;;;15.47;84.33496;942.9322;;;;
2020/09/18 04:58:35;;;;;;;3.5;2.4;;;;;;;15.53;84.22949;942.9432;;;;
2020/09/18 05:01:02;;;;;;;4.1;2.8;;;;;;;15.55;84.01563;942.9568;;;;
2020/09/18 05:03:26;;;;;;;4.2;3;;;;;;;15.45;85.15137;942.9322;;;;
2020/09/18 05:05:51;;;;;;;4.4;2.8;;;;;;;15.57;85.06836;942.9191;;;;
2020/09/18 05:08:16;;;;;;;5;3.1;;;;;;;;;;;;;
2020/09/18 05:10:42;;;;;;;5.7;3.9;;;;;;;;;;;;;
2020/09/18 05:13:08;;;;;;;5.8;3.1;;;;;;;;;;;;;
2020/09/18 05:15:32;;;;;;;6;3.3;;;;;;;;;;;;;
2020/09/18 05:17:59;;;;;;;6.4;3.1;;;;;;;;;;;;;
2020/09/18 05:20:24;;;;;;;6.2;3.2;;;;;;;;;;;;;
2020/09/18 05:22:49;;;;;;;4.9;3.3;;;;;;;;;;;;;
2020/09/18 05:25:15;;;;;;;7.6;3.8;;;;;;;;;;;;;
2020/09/18 05:27:40;;;;;;;7.1;3.5;;;;;;;;;;;;;
2020/09/18 05:30:05;;;;;;;5.6;3.5;;;;;;;;;;;;;
2020/09/18 05:32:30;;;;;;;5.8;3.6;;;;;;;;;;;;;
2020/09/18 05:34:55;;;;;;;5.8;3.5;;;;;;;;;;;;;
2020/09/18 05:37:21;;;;;;;7.7;3.5;;;;;;;;;;;;;
2020/09/18 05:39:46;;;;;;;10.3;4;;;;;;;;;;;;;
2020/09/18 05:42:11;;;;;;;6.8;3.5;;;;;;;;;;;;;
2020/09/18 05:44:36;;;;;;;6;3.7;;;;;;;;;;;;;
2020/09/18 05:47:02;;;;;;;6.4;3.9;;;;;;;;;;;;;
2020/09/18 05:49:28;;;;;;;9.2;4.6;;;;;;;;;;;;;
2020/09/18 05:51:53;;;;;;;9.4;4.3;;;;;;;;;;;;;
2020/09/18 05:54:19;;;;;;;6.5;3.9;;;;;;;;;;;;;
2020/09/18 05:56:45;;;;;;;7.9;4.4;;;;;;;;;;;;;
2020/09/18 05:59:10;;;;;;;7.2;4;;;;;;;;;;;;;
2020/09/18 06:01:35;;;;;;;5.9;3.8;;;;;;;;;;;;;
2020/09/18 06:04:00;;;;;;;7.5;3.6;;;;;;;;;;;;;
2020/09/18 06:06:25;;;;;;;7.2;3.9;;;;;;;;;;;;;
2020/09/18 06:08:50;;;;;;;9.1;3.9;;;;;;;;;;;;;
2020/09/18 06:11:15;;;;;;;4.6;3.2;;;;;;;;;;;;;
2020/09/18 06:13:41;;;;;;;5.2;3.2;;;;;;;;;;;;;
2020/09/18 06:16:06;;;;;;;6;3.4;;;;;;;;;;;;;
2020/09/18 06:18:31;;;;;;;5.8;3.1;;;;;;;;;;;;;
2020/09/18 06:20:56;;;;;;;7.4;3.2;;;;;;;;;;;;;
2020/09/18 06:23:22;;;;;;;4.4;2.6;;;;;;;;;;;;;
2020/09/18 06:25:47;;;;;;;3.1;2.2;;;;;;;;;;;;;
2020/09/18 06:28:13;;;;;;;4.8;3.1;;;;;;;;;;;;;
2020/09/18 06:30:39;;;;;;;6.4;3.4;;;;;;;;;;;;;
2020/09/18 06:33:04;;;;;;;2.9;2.4;;;;;;;;;;;;;
2020/09/18 06:35:29;;;;;;;4.5;3.1;;;;;;;;;;;;;
2020/09/18 06:37:56;;;;;;;5.7;3.1;;;;;;;;;;;;;
2020/09/18 06:40:21;;;;;;;4.4;3;;;;;;;;;;;;;
2020/09/18 06:42:47;;;;;;;8.2;3;;;;;;;;;;;;;
2020/09/18 06:45:12;;;;;;;4.8;3.1;;;;;;;;;;;;;
2020/09/18 06:47:38;;;;;;;4.9;2.9;;;;;;;;;;;;;
2020/09/18 06:50:03;;;;;;;5.1;3;;;;;;;;;;;;;
2020/09/18 06:52:30;;;;;;;7.4;3.9;;;;;;;;;;;;;
2020/09/18 06:54:55;;;;;;;5.8;3.7;;;;;;;;;;;;;
2020/09/18 06:57:21;;;;;;;6.1;3.3;;;;;;;;;;;;;
2020/09/18 06:59:46;;;;;;;13.4;4.5;;;;;;;;;;;;;
2020/09/18 07:02:12;;;;;;;4.3;2.7;;;;;;;;;;;;;
2020/09/18 07:04:38;;;;;;;10.7;2.8;;;;;;;;;;;;;
2020/09/18 07:07:04;;;;;;;4.8;3.2;;;;;;;;;;;;;
2020/09/18 07:09:29;;;;;;;4.5;2.4;;;;;;;;;;;;;
2020/09/18 07:11:55;;;;;;;6.4;3.1;;;;;;;;;;;;;
2020/09/18 07:14:20;;;;;;;6.6;3;;;;;;;;;;;;;
2020/09/18 07:16:46;;;;;;;4.5;2.5;;;;;;;;;;;;;
2020/09/18 07:19:11;;;;;;;5;3;;;;;;;;;;;;;
2020/09/18 07:21:37;;;;;;;2.7;2.3;;;;;;;;;;;;;
2020/09/18 07:24:02;;;;;;;3.7;2.4;;;;;;;;;;;;;
2020/09/18 07:26:27;;;;;;;3.3;2.4;;;;;;;;;;;;;
2020/09/18 07:28:52;;;;;;;3.1;2.5;;;;;;;;;;;;;
2020/09/18 07:31:17;;;;;;;3.8;2.9;;;;;;;;;;;;;
2020/09/18 07:33:42;;;;;;;8.2;2.8;;;;;;;;;;;;;
2020/09/18 07:36:08;;;;;;;4.9;2.4;;;;;;;;;;;;;
2020/09/18 07:38:33;;;;;;;2.7;1.7;;;;;;;;;;;;;
2020/09/18 07:40:58;;;;;;;4.4;2.3;;;;;;;;;;;;;
2020/09/18 07:43:24;;;;;;;4.3;2.4;;;;;;;;;;;;;
2020/09/18 07:45:50;;;;;;;3.3;2.2;;;;;;;;;;;;;
2020/09/18 07:48:15;;;;;;;2;1.4;;;;;;;;;;;;;
2020/09/18 07:50:40;;;;;;;3.2;1.5;;;;;;;;;;;;;
2020/09/18 07:53:07;;;;;;;3.3;2;;;;;;;;;;;;;
2020/09/18 07:55:32;;;;;;;4.9;2.5;;;;;;;;;;;;;
2020/09/18 07:57:57;;;;;;;3.6;1.5;;;;;;;;;;;;;
2020/09/18 08:00:25;;;;;;;2.5;1.9;;;;;;;;;;;;;
2020/09/18 08:02:51;;;;;;;2;1.5;;;;;;;;;;;;;
2020/09/18 08:05:16;;;;;;;4.5;2.8;;;;;;;;;;;;;
2020/09/18 08:07:42;;;;;;;3.3;1.8;;;;;;;;;;;;;
2020/09/18 08:10:08;;;;;;;3.7;1.7;;;;;;;;;;;;;
2020/09/18 08:12:34;;;;;;;2.5;1.6;;;;;;;;;;;;;
2020/09/18 08:14:59;;;;;;;5.4;2;;;;;;;;;;;;;
2020/09/18 08:17:26;;;;;;;4.9;1.9;;;;;;;;;;;;;
2020/09/18 08:19:51;;;;;;;4.5;2.2;;;;;;;;;;;;;
2020/09/18 08:22:17;;;;;;;2.9;1.6;;;;;;;;;;;;;
2020/09/18 08:24:42;;;;;;;2.5;1.4;;;;;;;;;;;;;
2020/09/18 08:27:07;;;;;;;2;1.6;;;;;;;;;;;;;
2020/09/18 08:29:32;;;;;;;2.1;1.2;;;;;;;;;;;;;
2020/09/18 08:31:59;;;;;;;2.9;1.7;;;;;;;;;;;;;
2020/09/18 08:34:24;;;;;;;2.1;1.7;;;;;;;;;;;;;
2020/09/18 08:36:50;;;;;;;1.9;1.1;;;;;;;;;;;;;
2020/09/18 08:39:15;;;;;;;1.5;1.2;;;;;;;;;;;;;
2020/09/18 08:41:41;;;;;;;1.7;1.3;;;;;;;;;;;;;
2020/09/18 08:44:06;;;;;;;2.9;1.4;;;;;;;;;;;;;
2020/09/18 08:46:33;;;;;;;3.3;1.8;;;;;;;;;;;;;
2020/09/18 08:48:58;;;;;;;2.5;1.3;;;;;;;;;;;;;
2020/09/18 08:51:24;;;;;;;2.7;1.7;;;;;;;;;;;;;
2020/09/18 08:53:49;;;;;;;2.5;1.8;;;;;;;;;;;;;
2020/09/18 08:56:15;;;;;;;2.6;1.5;;;;;;;;;;;;;
2020/09/18 08:58:40;;;;;;;3.4;1.9;;;;;;;;;;;;;
2020/09/18 09:01:06;;;;;;;2.6;1.7;;;;;;;;;;;;;
2020/09/18 09:03:32;;;;;;;3;1.6;;;;;;;;;;;;;
2020/09/18 09:05:58;;;;;;;4;1.6;;;;;;;;;;;;;
2020/09/18 09:08:23;;;;;;;1.6;1.3;;;;;;;;;;;;;
2020/09/18 09:10:51;;;;;;;3;1.7;;;;;;;;;;;;;
2020/09/18 09:13:16;;;;;;;5.3;1.6;;;;;;;;;;;;;
2020/09/18 09:15:42;;;;;;;5.3;1.4;;;;;;;;;;;;;
2020/09/18 09:18:06;;;;;;;3.2;1.9;;;;;;;;;;;;;
2020/09/18 09:20:32;;;;;;;2.9;1.9;;;;;;;;;;;;;
2020/09/18 09:22:57;;;;;;;2.2;1.7;;;;;;;;;;;;;
2020/09/18 09:25:23;;;;;;;6.4;1.6;;;;;;;;;;;;;
2020/09/18 09:27:48;;;;;;;2.8;1.7;;;;;;;;;;;;;
2020/09/18 09:30:17;;;;;;;4.5;2;;;;;;;;;;;;;
2020/09/18 09:32:43;;;;;;;3;1.7;;;;;;;;;;;;;
2020/09/18 09:35:07;;;;;;;3.9;1.6;;;;;;;;;;;;;
2020/09/18 09:37:32;;;;;;;10;2;;;;;;;;;;;;;
2020/09/18 09:39:58;;;;;;;3.4;1.7;;;;;;;;;;;;;
2020/09/18 09:42:23;;;;;;;2.8;2;;;;;;;;;;;;;
2020/09/18 09:44:48;;;;;;;4.2;1.8;;;;;;;;;;;;;
2020/09/18 09:47:13;;;;;;;3.4;2;;;;;;;;;;;;;
2020/09/18 09:49:38;;;;;;;3.1;1.9;;;;;;;;;;;;;
2020/09/18 09:52:03;;;;;;;4.2;1.9;;;;;;;;;;;;;
2020/09/18 09:54:28;;;;;;;3.1;2;;;;;;;;;;;;;
2020/09/18 09:56:54;;;;;;;2.4;1.4;;;;;;;;;;;;;
2020/09/18 09:59:19;;;;;;;3.5;1.9;;;;;;;;;;;;;
2020/09/18 10:01:47;;;;;;;5.7;1.8;;;;;;;;;;;;;
2020/09/18 10:04:11;;;;;;;3.7;1.8;;;;;;;;;;;;;
2020/09/18 10:06:38;;;;;;;4;1.2;;;;;;;;;;;;;
2020/09/18 10:09:01;;;;;;;2.9;1.9;;;;;;;;;;;;;
2020/09/18 10:11:27;;;;;;;3.4;2.2;;;;;;;;;;;;;
2020/09/18 10:13:52;;;;;;;2.8;1.9;;;;;;;;;;;;;
2020/09/18 10:16:19;;;;;;;3.7;1.9;;;;;;;;;;;;;
2020/09/18 10:18:44;;;;;;;5.2;2;;;;;;;;;;;;;
2020/09/18 10:21:09;;;;;;;2.7;1.6;;;;;;;;;;;;;
2020/09/18 10:23:34;;;;;;;3.4;1.7;;;;;;;;;;;;;
2020/09/18 10:25:59;;;;;;;3.7;1.6;;;;;;;;;;;;;
2020/09/18 10:28:24;;;;;;;4.8;1.9;;;;;;;;;;;;;
2020/09/18 10:30:50;;;;;;;3.1;2;;;;;;;;;;;;;
2020/09/18 10:33:15;;;;;;;12.6;2.5;;;;;;;;;;;;;
2020/09/18 10:35:40;;;;;;;3.2;2.3;;;;;;;;;;;;;
2020/09/18 10:38:07;;;;;;;2.9;2.1;;;;;;;;;;;;;
2020/09/18 10:40:32;;;;;;;2.6;1.7;;;;;;;;;;;;;
2020/09/18 10:42:58;;;;;;;3.7;2;;;;;;;;;;;;;
2020/09/18 10:45:23;;;;;;;3.6;2;;;;;;;;;;;;;
2020/09/18 10:47:49;;;;;;;3.4;2.3;;;;;;;;;;;;;
2020/09/18 10:50:14;;;;;;;5.6;2.6;;;;;;;;;;;;;
2020/09/18 10:52:40;;;;;;;5.4;3.1;;;;;;;;;;;;;
2020/09/18 10:55:05;;;;;;;4.9;2.9;;;;;;;;;;;;;
2020/09/18 10:57:30;;;;;;;4.6;2.6;;;;;;;;;;;;;
2020/09/18 10:59:55;;;;;;;3.3;2.3;;;;;;;;;;;;;
2020/09/18 11:02:20;;;;;;;5.3;2.1;;;;;;;;;;;;;
2020/09/18 11:04:45;;;;;;;4.9;2.3;;;;;;;;;;;;;
2020/09/18 11:07:10;;;;;;;5.9;2.3;;;;;;;;;;;;;
2020/09/18 11:09:39;;;;;;;3.5;2.3;;;;;;;;;;;;;
2020/09/18 11:12:04;;;;;;;4.5;2.2;;;;;;;;;;;;;
2020/09/18 11:14:29;;;;;;;3.8;2.3;;;;;;;;;;;;;
2020/09/18 11:16:54;;;;;;;3.1;2.4;;;;;;;;;;;;;
2020/09/18 11:19:20;;;;;;;4.9;2.6;;;;;;;;;;;;;
2020/09/18 11:21:45;;;;;;;3.3;2.3;;;;;;;;;;;;;
2020/09/18 11:24:10;;;;;;;4.9;2.5;;;;;;;;;;;;;
2020/09/18 11:26:36;;;;;;;4;2.3;;;;;;;;;;;;;
2020/09/18 11:29:01;;;;;;;3.8;2.4;;;;;;;;;;;;;
2020/09/18 11:31:26;;;;;;;6.1;2.7;;;;;;;;;;;;;
2020/09/18 11:33:52;;;;;;;3.3;2.1;;;;;;;;;;;;;
2020/09/18 11:36:17;;;;;;;3.4;2.2;;;;;;;;;;;;;
2020/09/18 11:38:45;;;;;;;5;2.9;;;;;;;;;;;;;
2020/09/18 11:41:08;;;;;;;3.1;1.9;;;;;;;;;;;;;
2020/09/18 11:43:33;;;;;;;4.2;2.4;;;;;;;;;;;;;
2020/09/18 11:45:59;;;;;;;4.7;2.6;;;;;;;;;;;;;
2020/09/18 11:48:24;;;;;;;3.6;2;;;;;;;;;;;;;
2020/09/18 11:50:49;;;;;;;5.5;2.7;;;;;;;;;;;;;
2020/09/18 11:53:14;;;;;;;5.1;2.6;;;;;;;;;;;;;
2020/09/18 11:55:41;;;;;;;3.1;2.2;;;;;;;;;;;;;
2020/09/18 11:58:06;;;;;;;4.1;2.5;;;;;;;;;;;;;
2020/09/18 12:00:33;;;;;;;4.8;2.5;;;;;;;;;;;;;
2020/09/18 12:02:57;;;;;;;3;2.2;;;;;;;;;;;;;
2020/09/18 12:05:23;;;;;;;11.8;2.7;;;;;;;;;;;;;
2020/09/18 12:07:48;;;;;;;3.7;2.4;;;;;;;;;;;;;
2020/09/18 12:10:16;;;;;;;4.4;2.7;;;;;;;;;;;;;
2020/09/18 12:12:41;;;;;;;2.9;2.1;;;;;;;;;;;;;
2020/09/18 12:15:06;;;;;;;6;2.6;;;;;;;;;;;;;
2020/09/18 12:17:31;;;;;;;5.6;2.4;;;;;;;;;;;;;
2020/09/18 12:19:56;;;;;;;7;2.2;;;;;;;;;;;;;
2020/09/18 12:22:21;;;;;;;6.4;2.4;;;;;;;;;;;;;
2020/09/18 12:24:47;;;;;;;4.3;2.8;;;;;;;;;;;;;
2020/09/18 12:27:12;;;;;;;3.2;2.2;;;;;;;;;;;;;
2020/09/18 12:29:39;;;;;;;2.8;2.1;;;;;;;;;;;;;
2020/09/18 12:32:04;;;;;;;4.7;2.4;;;;;;;;;;;;;
2020/09/18 12:34:30;;;;;;;3.2;2.4;;;;;;;;;;;;;
2020/09/18 12:36:55;;;;;;;6;2.8;;;;;;;;;;;;;
2020/09/18 12:39:21;;;;;;;2.3;1.9;;;;;;;;;;;;;
2020/09/18 12:41:46;;;;;;;5.2;2.8;;;;;;;;;;;;;
2020/09/18 12:44:13;;;;;;;4.1;2.2;;;;;;;;;;;;;
2020/09/18 12:46:37;;;;;;;3.2;2.2;;;;;;;;;;;;;
2020/09/18 12:49:03;;;;;;;2.8;1.9;;;;;;;;;;;;;
2020/09/18 12:51:29;;;;;;;6.9;2.7;;;;;;;;;;;;;
2020/09/18 12:53:55;;;;;;;2.8;2.2;;;;;;;;;;;;;
2020/09/18 12:56:20;;;;;;;5.3;2.7;;;;;;;;;;;;;
2020/09/18 12:58:46;;;;;;;4.3;2.4;;;;;;;;;;;;;
2020/09/18 13:01:11;;;;;;;4.1;2.3;;;;;;;;;;;;;
2020/09/18 13:03:37;;;;;;;2.9;2.4;;;;;;;;;;;;;
2020/09/18 13:06:02;;;;;;;3.2;2.4;;;;;;;;;;;;;
2020/09/18 13:08:28;;;;;;;4.6;2.6;;;;;;;;;;;;;
2020/09/18 13:10:55;;;;;;;4.4;2.4;;;;;;;;;;;;;
2020/09/18 13:13:19;;;;;;;4.5;2.4;;;;;;;;;;;;;
2020/09/18 13:15:44;;;;;;;7;2.2;;;;;;;;;;;;;
2020/09/18 13:18:09;;;;;;;4.5;2.4;;;;;;;;;;;;;
2020/09/18 13:20:34;;;;;;;4.6;2.3;;;;;;;;;;;;;
2020/09/18 13:22:59;;;;;;;5.8;2.5;;;;;;;;;;;;;
2020/09/18 13:25:26;;;;;;;3;2.3;;;;;;;;;;;;;
2020/09/18 13:27:49;;;;;;;3.6;2.4;;;;;;;;;;;;;
2020/09/18 13:30:18;;;;;;;5.4;2.7;;;;;;;;;;;;;
2020/09/18 13:32:43;;;;;;;11.8;3.4;;;;;;;;;;;;;
2020/09/18 13:35:08;;;;;;;2;1.5;;;;;;;;;;;;;
2020/09/18 13:37:34;;;;;;;3.6;2;;;;;;;;;;;;;
2020/09/18 13:39:59;;;;;;;4.3;2.4;;;;;;;;;;;;;
2020/09/18 13:42:24;;;;;;;6.3;2.9;;;;;;;;;;;;;
2020/09/18 13:44:49;;;;;;;6.3;2.9;;;;;;;;;;;;;
2020/09/18 13:47:14;;;;;;;4.7;2.1;;;;;;;;;;;;;
2020/09/18 13:49:40;;;;;;;6.1;2.4;;;;;;;;;;;;;
2020/09/18 13:52:05;;;;;;;3.6;2.4;;;;;;;;;;;;;
2020/09/18 13:54:30;;;;;;;3.9;2.4;;;;;;;;;;;;;
2020/09/18 13:56:55;;;;;;;4.2;2.4;;;;;;;;;;;;;
2020/09/18 13:59:20;;;;;;;4.7;2.8;;;;;;;;;;;;;
2020/09/18 14:01:46;;;;;;;2.6;2.2;;;;;;;;;;;;;
2020/09/18 14:04:10;;;;;;;3.2;2.3;;;;;;;;;;;;;
2020/09/18 14:06:35;;;;;;;4.5;1.9;;;;;;;;;;;;;
2020/09/18 14:09:00;;;;;;;4.5;1.9;;;;;;;;;;;;;
2020/09/18 14:11:27;;;;;;;3.7;2;;;;;;;;;;;;;
2020/09/18 14:13:52;;;;;;;3.7;2;;;;;;;;;;;;;
2020/09/18 14:16:18;;;;;;;3.5;2.4;;;;;;;;;;;;;
2020/09/18 14:18:43;;;;;;;2.3;1.7;;;;;;;;;;;;;
2020/09/18 14:21:08;;;;;;;4.7;2.6;;;;;;;;;;;;;
2020/09/18 14:23:35;;;;;;;3.7;2.4;;;;;;;;;;;;;
2020/09/18 14:25:59;;;;;;;3.7;2;;;;;;;;;;;;;
2020/09/18 14:28:24;;;;;;;3.9;2.3;;;;;;;;;;;;;
2020/09/18 14:30:49;;;;;;;3.8;2.1;;;;;;;;;;;;;
2020/09/18 14:33:14;;;;;;;2.7;2.1;;;;;;;;;;;;;
2020/09/18 14:35:39;;;;;;;3.6;2.3;;;;;;;;;;;;;
2020/09/18 14:38:05;;;;;;;7.2;2.1;;;;;;;;;;;;;
2020/09/18 14:40:30;;;;;;;3.5;2.3;;;;;;;;;;;;;
2020/09/18 14:42:56;;;;;;;4;2.2;;;;;;;;;;;;;
2020/09/18 14:45:21;;;;;;;3.2;2.3;;;;;;;;;;;;;
2020/09/18 14:47:47;;;;;;;4.2;2.6;;;;;;;;;;;;;
2020/09/18 14:50:13;;;;;;;5.6;2.3;;;;;;;;;;;;;
2020/09/18 14:52:39;;;;;;;2.5;2.1;;;;;;;;;;;;;
2020/09/18 14:55:04;;;;;;;3.9;2.5;;;;;;;;;;;;;
2020/09/18 14:57:29;;;;;;;6.8;2.4;;;;;;;;;;;;;
2020/09/18 14:59:57;;;;;;;3.6;2.3;;;;;;;;;;;;;
2020/09/18 15:02:19;;;;;;;4.5;2.3;;;;;;;;;;;;;
2020/09/18 15:04:45;;;;;;;6.9;2.9;;;;;;;;;;;;;
2020/09/18 15:07:10;;;;;;;18;2.4;;;;;;;;;;;;;
2020/09/18 15:09:35;;;;;;;4;2;;;;;;;;;;;;;
2020/09/18 15:12:00;;;;;;;2.7;1.8;;;;;;;;;;;;;
2020/09/18 15:14:25;;;;;;;3.2;1.9;;;;;;;;;;;;;
2020/09/18 15:16:52;;;;;;;4.4;2.3;;;;;;;;;;;;;
2020/09/18 15:19:17;;;;;;;6.1;2;;;;;;;;;;;;;
2020/09/18 15:21:41;;;;;;;3.8;2.6;;;;;;;;;;;;;
2020/09/18 15:24:07;;;;;;;6.8;2.6;;;;;;;;;;;;;
2020/09/18 15:26:33;;;;;;;1.9;1.5;;;;;;;;;;;;;
2020/09/18 15:28:59;;;;;;;3.8;2.4;;;;;;;;;;;;;
2020/09/18 15:31:24;;;;;;;2.9;1.9;;;;;;;;;;;;;
2020/09/18 15:33:49;;;;;;;3;2.2;;;;;;;;;;;;;
2020/09/18 15:36:14;;;;;;;3.6;2.5;;;;;;;;;;;;;
2020/09/18 15:38:39;;;;;;;5;2.3;;;;;;;;;;;;;
2020/09/18 15:41:04;;;;;;;3.8;2.3;;;;;;;;;;;;;
2020/09/18 15:43:30;;;;;;;4.1;1.8;;;;;;;;;;;;;
2020/09/18 15:45:56;;;;;;;5.7;2.3;;;;;;;;;;;;;
2020/09/18 15:48:21;;;;;;;4.5;1.9;;;;;;;;;;;;;
2020/09/18 15:50:47;;;;;;;3.7;2;;;;;;;;;;;;;
2020/09/18 15:53:12;;;;;;;4;1.4;;;;;;;;;;;;;
2020/09/18 15:55:37;;;;;;;6.7;2.4;;;;;;;;;;;;;
2020/09/18 15:58:02;;;;;;;2.5;1.9;;;;;;;;;;;;;
2020/09/18 16:00:30;;;;;;;7.9;2.6;;;;;;;;;;;;;
2020/09/18 16:02:55;;;;;;;4.5;2.3;;;;;;;;;;;;;
2020/09/18 16:05:20;;;;;;;3.2;1.7;;;;;;;;;;;;;
2020/09/18 16:07:45;;;;;;;4.9;1.6;;;;;;;;;;;;;
2020/09/18 16:10:12;;;;;;;3.3;1.8;;;;;;;;;;;;;
2020/09/18 16:12:37;;;;;;;8.6;2.5;;;;;;;;;;;;;
2020/09/18 16:15:03;;;;;;;3.2;2.2;;;;;;;;;;;;;
2020/09/18 16:17:28;;;;;;;2.8;1.8;;;;;;;;;;;;;
2020/09/18 16:19:53;;;;;;;3.3;2;;;;;;;;;;;;;
2020/09/18 16:22:18;;;;;;;2.7;1.9;;;;;;;;;;;;;
2020/09/18 16:24:44;;;;;;;4.6;2.6;;;;;;;;;;;;;
2020/09/18 16:27:09;;;;;;;2.6;1.8;;;;;;;;;;;;;
2020/09/18 16:29:36;;;;;;;3.1;1.9;;;;;;;;;;;;;
2020/09/18 16:32:01;;;;;;;3;2.2;;;;;;;;;;;;;
2020/09/18 16:34:26;;;;;;;2.9;1.9;;;;;;;;;;;;;
2020/09/18 16:36:51;;;;;;;2;1.8;;;;;;;;;;;;;
2020/09/18 16:39:16;;;;;;;3.8;2;;;;;;;;;;;;;
2020/09/18 16:41:41;;;;;;;2.7;1.7;;;;;;;;;;;;;
2020/09/18 16:44:06;;;;;;;4;2.5;;;;;;;;;;;;;
2020/09/18 16:46:34;;;;;;;2.2;1.8;;;;;;;;;;;;;
2020/09/18 16:48:59;;;;;;;8.7;2;;;;;;;;;;;;;
2020/09/18 16:51:26;;;;;;;3.8;2.1;;;;;;;;;;;;;
2020/09/18 16:53:49;;;;;;;2.4;1.7;;;;;;;;;;;;;
2020/09/18 16:56:15;;;;;;;3.8;2.4;;;;;;;;;;;;;
2020/09/18 16:58:40;;;;;;;6.7;2.5;;;;;;;;;;;;;
2020/09/18 17:01:07;;;;;;;2.5;1.8;;;;;;;;;;;;;
2020/09/18 17:03:32;;;;;;;5.6;2.5;;;;;;;;;;;;;
2020/09/18 17:06:00;;;;;;;3;2.2;;;;;;;;;;;;;
2020/09/18 17:08:31;;;;;;;4.6;2.6;;;;;;;;;;;;;
2020/09/18 17:10:50;;;;;;;4.5;1.9;;;;;;;;;;;;;
2020/09/18 17:13:16;;;;;;;4.1;2.5;;;;;;;;;;;;;
2020/09/18 17:15:41;;;;;;;3.7;2.5;;;;;;;;;;;;;
2020/09/18 17:18:09;;;;;;;2.8;2.3;;;;;;;;;;;;;
2020/09/18 17:20:34;;;;;;;4.5;2;;;;;;;;;;;;;
2020/09/18 17:22:59;;;;;;;3.2;2;;;;;;;;;;;;;
2020/09/18 17:25:24;;;;;;;2.9;2;;;;;;;;;;;;;
2020/09/18 17:27:49;;;;;;;4.7;2.2;;;;;;;;;;;;;
2020/09/18 17:30:15;;;;;;;2.6;1.6;;;;;;;;;;;;;
2020/09/18 17:32:40;;;;;;;4.1;2.6;;;;;;;;;;;;;
2020/09/18 17:35:05;;;;;;;3.7;2.4;;;;;;;;;;;;;
2020/09/18 17:37:31;;;;;;;3.1;2;;;;;;;;;;;;;
2020/09/18 17:39:56;;;;;;;3.4;1.6;;;;;;;;;;;;;
2020/09/18 17:42:26;;;;;;;3.4;2.1;;;;;;;;;;;;;
2020/09/18 17:44:51;;;;;;;4.4;1.8;;;;;;;;;;;;;
2020/09/18 17:47:16;;;;;;;3.7;2.5;;;;;;;;;;;;;
2020/09/18 17:49:41;;;;;;;5.9;2.1;;;;;;;;;;;;;
2020/09/18 17:52:06;;;;;;;3.6;2.2;;;;;;;;;;;;;
2020/09/18 17:54:31;;;;;;;2.8;1.9;;;;;;;;;;;;;
2020/09/18 17:56:56;;;;;;;4.9;2.6;;;;;;;;;;;;;
2020/09/18 17:59:21;;;;;;;3.2;2.1;;;;;;;;;;;;;
2020/09/18 18:01:47;;;;;;;5.8;2.2;;;;;;;;;;;;;
2020/09/18 18:04:12;;;;;;;2.8;2;;;;;;;;;;;;;
2020/09/18 18:06:46;;;;;;;4.3;2;;;;;;;;;;;;;
2020/09/18 18:09:02;;;;;;;3;2.2;;;;;;;;;;;;;
2020/09/18 18:11:27;;;;;;;1.9;1.6;;;;;;;;;;;;;
2020/09/18 18:13:52;;;;;;;3.7;2.3;;;;;;;;;;;;;
2020/09/18 18:16:17;;;;;;;3.6;2.4;;;;;;;;;;;;;
2020/09/18 18:18:42;;;;;;;3.9;2.3;;;;;;;;;;;;;
2020/09/18 18:21:08;;;;;;;3.3;2.3;;;;;;;;;;;;;
2020/09/18 18:23:34;;;;;;;2.4;2;;;;;;;;;;;;;